createdAt,value
2023-05-22T00:01:04.832Z,14.77
2023-05-22T00:03:31.302Z,14.74
2023-05-22T00:05:58.812Z,14.78
2023-05-22T00:08:29.310Z,14.79
2023-05-22T00:10:56.199Z,14.75
2023-05-22T00:13:22.688Z,14.64
2023-05-22T00:15:49.535Z,14.59
2023-05-22T00:18:16.149Z,14.61
2023-05-22T00:20:42.734Z,14.68
2023-05-22T00:23:10.225Z,14.70
2023-05-22T00:25:37.426Z,14.69
2023-05-22T00:28:04.782Z,14.58
2023-05-22T00:30:31.840Z,14.42
2023-05-22T00:32:58.482Z,14.34
2023-05-22T00:35:25.021Z,14.33
2023-05-22T00:37:51.452Z,14.37
2023-05-22T00:40:18.050Z,14.46
2023-05-22T00:42:44.944Z,14.48
2023-05-22T00:45:15.023Z,14.42
2023-05-22T00:47:42.006Z,14.35
2023-05-22T00:50:11.014Z,14.26
2023-05-22T00:52:42.962Z,14.30
2023-05-22T00:55:11.870Z,14.30
2023-05-22T00:57:41.888Z,14.37
2023-05-22T01:00:11.173Z,14.40
2023-05-22T01:02:38.130Z,14.42
2023-05-22T01:05:11.145Z,14.41
2023-05-22T01:07:38.657Z,14.39
2023-05-22T01:10:06.121Z,14.39
2023-05-22T01:13:02.423Z,14.42
2023-05-22T01:15:47.295Z,14.44
2023-05-22T01:18:25.088Z,14.46
2023-05-22T01:21:04.175Z,14.45
2023-05-22T01:24:04.439Z,14.38
2023-05-22T01:26:58.878Z,14.36
2023-05-22T01:29:55.678Z,14.36
2023-05-22T01:32:25.754Z,14.31
2023-05-22T01:34:54.768Z,14.33
2023-05-22T01:37:22.530Z,14.30
2023-05-22T01:39:51.454Z,14.25
2023-05-22T01:42:18.943Z,14.26
2023-05-22T01:44:45.492Z,14.27
2023-05-22T01:47:11.998Z,14.29
2023-05-22T01:49:39.810Z,14.29
2023-05-22T01:52:06.667Z,14.27
2023-05-22T01:54:43.020Z,14.25
2023-05-22T01:57:12.252Z,14.24
2023-05-22T02:00:05.613Z,14.20
2023-05-22T02:02:49.090Z,14.14
2023-05-22T02:05:19.007Z,14.07
2023-05-22T02:07:47.560Z,14.05
2023-05-22T02:10:15.926Z,14.06
2023-05-22T02:12:42.638Z,14.01
2023-05-22T02:15:09.480Z,13.97
2023-05-22T02:17:42.626Z,13.96
2023-05-22T02:20:15.359Z,13.96
2023-05-22T02:22:47.885Z,13.92
2023-05-22T02:25:17.045Z,13.88
2023-05-22T02:27:45.910Z,13.81
2023-05-22T02:30:13.650Z,13.77
2023-05-22T02:32:42.295Z,13.69
2023-05-22T02:35:09.523Z,13.67
2023-05-22T02:37:36.782Z,13.71
2023-05-22T02:40:06.685Z,13.73
2023-05-22T02:42:34.434Z,13.73
2023-05-22T02:45:01.719Z,13.74
2023-05-22T02:47:28.341Z,13.73
2023-05-22T02:49:57.757Z,13.73
2023-05-22T02:52:24.888Z,13.73
2023-05-22T02:54:51.435Z,13.72
2023-05-22T02:57:18.576Z,13.73
2023-05-22T02:59:45.051Z,13.74
2023-05-22T03:02:14.979Z,13.75
2023-05-22T03:04:41.893Z,13.73
2023-05-22T03:07:08.840Z,13.71
2023-05-22T03:09:35.850Z,13.75
2023-05-22T03:12:02.405Z,13.79
2023-05-22T03:14:29.244Z,13.81
2023-05-22T03:16:56.299Z,13.78
2023-05-22T03:19:23.210Z,13.79
2023-05-22T03:21:50.060Z,13.85
2023-05-22T03:24:16.948Z,13.85
2023-05-22T03:26:43.905Z,13.88
2023-05-22T03:29:16.759Z,13.94
2023-05-22T03:31:43.590Z,13.95
2023-05-22T03:34:13.492Z,13.98
2023-05-22T03:36:42.331Z,14.02
2023-05-22T03:39:08.850Z,14.02
2023-05-22T03:41:40.175Z,13.99
2023-05-22T03:44:07.397Z,14.05
2023-05-22T03:46:33.936Z,14.11
2023-05-22T03:49:00.445Z,14.09
2023-05-22T03:51:27.023Z,14.09
2023-05-22T03:53:53.668Z,14.09
2023-05-22T03:56:21.091Z,14.06
2023-05-22T03:58:48.767Z,14.05
2023-05-22T04:01:16.924Z,14.06
2023-05-22T04:03:44.023Z,14.08
2023-05-22T04:06:10.904Z,14.06
2023-05-22T04:08:37.370Z,14.07
2023-05-22T04:11:05.320Z,14.07
2023-05-22T04:13:33.062Z,14.09
2023-05-22T04:16:01.955Z,14.11
2023-05-22T04:18:28.794Z,14.06
2023-05-22T04:20:57.404Z,14.03
2023-05-22T04:23:24.035Z,14.05
2023-05-22T04:25:51.229Z,14.07
2023-05-22T04:28:22.255Z,14.09
2023-05-22T04:30:49.388Z,14.09
2023-05-22T04:33:18.064Z,14.10
2023-05-22T04:35:44.615Z,14.13
2023-05-22T04:38:11.119Z,14.13
2023-05-22T04:40:38.084Z,14.14
2023-05-22T04:43:05.040Z,14.09
2023-05-22T04:45:32.778Z,14.02
2023-05-22T04:48:02.340Z,13.90
2023-05-22T04:50:32.531Z,13.93
2023-05-22T04:53:05.763Z,13.99
2023-05-22T04:55:35.146Z,14.01
2023-05-22T04:58:01.637Z,14.06
2023-05-22T05:00:29.093Z,14.09
2023-05-22T05:02:57.418Z,14.04
2023-05-22T05:05:24.301Z,14.09
2023-05-22T05:07:51.747Z,14.21
2023-05-22T05:10:19.455Z,14.32
2023-05-22T05:12:45.936Z,14.39
2023-05-22T05:15:12.728Z,14.41
2023-05-22T05:17:39.585Z,14.49
2023-05-22T05:20:07.878Z,14.53
2023-05-22T05:22:34.354Z,14.53
2023-05-22T05:25:03.624Z,14.65
2023-05-22T05:27:30.100Z,14.70
2023-05-22T05:29:58.842Z,14.69
2023-05-22T05:32:31.062Z,14.86
2023-05-22T05:35:07.787Z,15.07
2023-05-22T05:37:44.053Z,15.18
2023-05-22T05:40:12.194Z,15.23
2023-05-22T05:42:43.762Z,15.14
2023-05-22T05:45:11.392Z,15.17
2023-05-22T05:47:37.939Z,15.48
2023-05-22T05:50:04.914Z,15.70
2023-05-22T05:52:33.576Z,16.30
2023-05-22T05:55:04.337Z,16.88
2023-05-22T05:57:31.143Z,17.34
2023-05-22T05:59:57.973Z,18.05
2023-05-22T06:02:43.551Z,18.66
2023-05-22T06:05:26.852Z,19.51
2023-05-22T06:08:00.248Z,19.55
2023-05-22T06:10:27.208Z,19.43
2023-05-22T06:13:12.336Z,20.17
2023-05-22T06:15:40.038Z,20.76
2023-05-22T06:18:06.715Z,20.36
2023-05-22T06:20:33.406Z,20.30
2023-05-22T06:23:00.250Z,20.11
2023-05-22T06:25:29.938Z,19.58
2023-05-22T06:27:57.042Z,19.77
2023-05-22T06:30:43.720Z,19.84
2023-05-22T06:33:14.590Z,19.98
2023-05-22T06:35:42.111Z,19.82
2023-05-22T06:38:08.910Z,19.89
2023-05-22T06:40:35.665Z,20.73
2023-05-22T06:43:10.162Z,20.74
2023-05-22T06:45:46.002Z,20.88
2023-05-22T06:48:12.639Z,21.39
2023-05-22T06:50:51.994Z,21.80
2023-05-22T06:53:18.580Z,21.38
2023-05-22T06:55:45.166Z,21.38
2023-05-22T06:58:18.661Z,21.38
2023-05-22T07:00:45.296Z,21.11
2023-05-22T07:03:18.954Z,21.45
2023-05-22T07:06:18.329Z,20.92
2023-05-22T07:08:45.540Z,20.59
2023-05-22T07:11:12.122Z,20.17
2023-05-22T07:13:38.603Z,20.20
2023-05-22T07:16:06.384Z,20.49
2023-05-22T07:18:34.244Z,20.19
2023-05-22T07:21:01.518Z,20.28
2023-05-22T07:23:28.745Z,20.42
2023-05-22T07:25:55.389Z,20.36
2023-05-22T07:28:25.528Z,20.87
2023-05-22T07:31:00.336Z,21.18
2023-05-22T07:33:27.195Z,21.32
2023-05-22T07:35:54.791Z,20.74
2023-05-22T07:38:21.301Z,20.64
2023-05-22T07:40:56.356Z,20.63
2023-05-22T07:43:23.703Z,20.51
2023-05-22T07:45:51.153Z,20.72
2023-05-22T07:48:21.648Z,21.44
2023-05-22T07:50:48.307Z,21.39
2023-05-22T07:53:16.340Z,21.82
2023-05-22T07:55:44.294Z,21.34
2023-05-22T07:58:11.359Z,21.41
2023-05-22T08:00:41.709Z,22.11
2023-05-22T08:03:08.545Z,21.83
2023-05-22T08:05:35.170Z,21.73
2023-05-22T08:08:02.961Z,22.22
2023-05-22T08:10:37.218Z,21.81
2023-05-22T08:13:13.358Z,21.37
2023-05-22T08:15:39.813Z,21.67
2023-05-22T08:18:06.405Z,21.54
2023-05-22T08:20:33.530Z,22.05
2023-05-22T08:23:00.327Z,21.97
2023-05-22T08:25:26.845Z,22.06
2023-05-22T08:27:53.329Z,21.55
2023-05-22T08:30:19.850Z,21.76
2023-05-22T08:32:46.394Z,21.93
2023-05-22T08:35:14.221Z,21.82
2023-05-22T08:37:41.242Z,22.41
2023-05-22T08:40:11.481Z,22.82
2023-05-22T08:42:38.481Z,22.42
2023-05-22T08:45:07.004Z,23.11
2023-05-22T08:47:35.926Z,23.04
2023-05-22T08:50:03.206Z,23.70
2023-05-22T08:52:51.030Z,23.57
2023-05-22T08:55:19.525Z,22.99
2023-05-22T08:57:47.285Z,22.82
2023-05-22T09:00:14.420Z,23.25
2023-05-22T09:02:42.477Z,23.78
2023-05-22T09:05:09.792Z,23.92
2023-05-22T09:07:37.956Z,23.48
2023-05-22T09:10:07.040Z,23.29
2023-05-22T09:12:34.063Z,23.35
2023-05-22T09:15:10.142Z,24.06
2023-05-22T09:17:40.696Z,24.23
2023-05-22T09:20:10.084Z,23.88
2023-05-22T09:22:38.219Z,22.89
2023-05-22T09:25:05.418Z,23.05
2023-05-22T09:27:32.106Z,23.64
2023-05-22T09:29:58.668Z,23.60
2023-05-22T09:32:29.656Z,23.71
2023-05-22T09:35:04.027Z,24.09
2023-05-22T09:37:37.288Z,24.09
2023-05-22T09:40:09.474Z,24.13
2023-05-22T09:42:36.438Z,23.83
2023-05-22T09:45:07.752Z,23.35
2023-05-22T09:47:35.013Z,23.36
2023-05-22T09:50:06.188Z,23.77
2023-05-22T09:52:34.837Z,23.98
2023-05-22T09:55:08.830Z,24.74
2023-05-22T09:57:43.898Z,25.19
2023-05-22T10:00:15.910Z,24.86
2023-05-22T10:02:48.737Z,24.91
2023-05-22T10:05:22.068Z,25.67
2023-05-22T10:07:56.090Z,25.50
2023-05-22T10:10:25.917Z,24.63
2023-05-22T10:13:03.612Z,24.89
2023-05-22T10:15:32.153Z,24.65
2023-05-22T10:17:59.285Z,24.24
2023-05-22T10:20:26.835Z,24.46
2023-05-22T10:22:53.974Z,24.44
2023-05-22T10:25:23.337Z,24.48
2023-05-22T10:27:53.423Z,24.65
2023-05-22T10:30:47.648Z,25.51
2023-05-22T10:33:30.686Z,26.13
2023-05-22T10:36:08.610Z,25.83
2023-05-22T10:39:04.640Z,26.41
2023-05-22T10:41:31.370Z,26.36
2023-05-22T10:43:58.325Z,25.89
2023-05-22T10:46:25.302Z,26.49
2023-05-22T10:48:54.074Z,26.51
2023-05-22T10:51:23.557Z,26.34
2023-05-22T10:53:58.267Z,27.08
2023-05-22T10:56:33.228Z,27.76
2023-05-22T10:59:08.345Z,27.96
2023-05-22T11:01:37.890Z,28.17
2023-05-22T11:04:18.722Z,27.41
2023-05-22T11:07:02.702Z,26.80
2023-05-22T11:09:31.085Z,27.44
2023-05-22T11:12:27.442Z,27.89
2023-05-22T11:14:56.864Z,28.22
2023-05-22T11:17:28.953Z,28.46
2023-05-22T11:20:02.935Z,28.57
2023-05-22T11:22:37.554Z,27.81
2023-05-22T11:25:10.747Z,27.50
2023-05-22T11:27:40.608Z,27.58
2023-05-22T11:30:08.759Z,27.05
2023-05-22T11:32:39.674Z,27.67
2023-05-22T11:35:08.474Z,28.01
2023-05-22T11:37:41.637Z,28.09
2023-05-22T11:40:09.629Z,28.44
2023-05-22T11:42:37.615Z,28.27
2023-05-22T11:45:05.160Z,28.41
2023-05-22T11:47:31.834Z,27.60
2023-05-22T11:49:59.770Z,27.07
2023-05-22T11:52:33.967Z,26.94
2023-05-22T11:55:01.264Z,26.90
2023-05-22T11:57:28.366Z,26.46
2023-05-22T11:59:54.879Z,26.25
2023-05-22T12:02:21.444Z,27.22
2023-05-22T12:04:47.935Z,27.04
2023-05-22T12:07:14.499Z,27.00
2023-05-22T12:09:42.710Z,27.72
2023-05-22T12:12:11.240Z,28.04
2023-05-22T12:14:37.890Z,27.93
2023-05-22T12:17:04.472Z,26.85
2023-05-22T12:19:31.203Z,26.78
2023-05-22T12:21:58.770Z,26.99
2023-05-22T12:24:25.555Z,27.50
2023-05-22T12:26:53.263Z,27.27
2023-05-22T12:29:22.813Z,26.79
2023-05-22T12:31:49.480Z,26.97
2023-05-22T12:34:18.427Z,27.06
2023-05-22T12:36:46.944Z,27.29
2023-05-22T12:39:17.962Z,27.96
2023-05-22T12:41:45.642Z,28.14
2023-05-22T12:44:12.958Z,27.99
2023-05-22T12:46:41.010Z,28.07
2023-05-22T12:49:07.882Z,27.98
2023-05-22T12:51:34.847Z,27.48
2023-05-22T12:54:02.160Z,26.65
2023-05-22T12:56:31.760Z,26.14
2023-05-22T12:58:58.878Z,26.14
2023-05-22T13:01:26.221Z,25.37
2023-05-22T13:03:53.086Z,24.70
2023-05-22T13:06:20.356Z,24.68
2023-05-22T13:08:46.902Z,24.92
2023-05-22T13:11:13.332Z,24.97
2023-05-22T13:13:39.967Z,24.52
2023-05-22T13:16:06.501Z,24.28
2023-05-22T13:18:32.976Z,24.15
2023-05-22T13:21:00.229Z,23.85
2023-05-22T13:23:26.773Z,23.85
2023-05-22T13:25:53.295Z,23.85
2023-05-22T13:28:19.803Z,23.87
2023-05-22T13:30:46.236Z,23.58
2023-05-22T13:33:13.510Z,23.81
2023-05-22T13:35:40.337Z,24.03
2023-05-22T13:38:07.195Z,24.04
2023-05-22T13:40:33.730Z,24.02
2023-05-22T13:43:00.258Z,24.04
2023-05-22T13:45:27.643Z,23.91
2023-05-22T13:47:54.302Z,23.41
2023-05-22T13:50:20.840Z,23.30
2023-05-22T13:52:47.374Z,23.80
2023-05-22T13:55:13.892Z,24.07
2023-05-22T13:57:40.665Z,24.52
2023-05-22T14:00:09.319Z,24.32
2023-05-22T14:02:36.061Z,24.68
2023-05-22T14:05:02.829Z,24.52
2023-05-22T14:07:29.292Z,24.32
2023-05-22T14:09:55.824Z,24.44
2023-05-22T14:12:22.284Z,24.69
2023-05-22T14:14:48.726Z,24.73
2023-05-22T14:17:15.218Z,24.97
2023-05-22T14:19:41.742Z,25.10
2023-05-22T14:22:08.199Z,24.20
2023-05-22T14:24:34.727Z,24.11
2023-05-22T14:27:01.264Z,24.33
2023-05-22T14:29:28.070Z,24.09
2023-05-22T14:32:01.203Z,24.19
2023-05-22T14:34:27.690Z,24.14
2023-05-22T14:36:56.457Z,23.80
2023-05-22T14:39:24.632Z,23.56
2023-05-22T14:41:52.488Z,23.59
2023-05-22T14:44:19.511Z,23.89
2023-05-22T14:46:46.227Z,23.76
2023-05-22T14:49:12.857Z,23.87
2023-05-22T14:51:39.337Z,23.66
2023-05-22T14:54:06.838Z,23.28
2023-05-22T14:56:33.534Z,23.63
2023-05-22T14:59:00.031Z,24.01
2023-05-22T15:01:26.651Z,23.40
2023-05-22T15:03:53.192Z,23.30
2023-05-22T15:06:19.649Z,23.82
2023-05-22T15:08:46.091Z,24.29
2023-05-22T15:11:12.636Z,24.18
2023-05-22T15:13:39.069Z,23.71
2023-05-22T15:16:05.583Z,23.29
2023-05-22T15:18:32.072Z,23.35
2023-05-22T15:20:58.665Z,23.12
2023-05-22T15:23:26.488Z,22.95
2023-05-22T15:25:53.891Z,22.68
2023-05-22T15:28:21.364Z,22.42
2023-05-22T15:30:47.868Z,22.60
2023-05-22T15:33:15.093Z,22.76
2023-05-22T15:35:43.424Z,23.16
2023-05-22T15:38:12.522Z,23.02
2023-05-22T15:40:44.302Z,22.46
2023-05-22T15:43:10.911Z,22.13
2023-05-22T15:45:38.144Z,22.10
2023-05-22T15:48:05.868Z,21.90
2023-05-22T15:50:33.771Z,21.74
2023-05-22T15:53:01.014Z,21.71
2023-05-22T15:55:28.768Z,22.07
2023-05-22T15:57:55.296Z,21.95
2023-05-22T16:00:21.886Z,21.58
2023-05-22T16:02:49.249Z,21.79
2023-05-22T16:05:16.169Z,21.55
2023-05-22T16:07:42.592Z,21.26
2023-05-22T16:10:09.373Z,21.19
2023-05-22T16:12:35.914Z,21.26
2023-05-22T16:15:03.835Z,21.18
2023-05-22T16:17:31.713Z,21.13
2023-05-22T16:19:58.227Z,21.23
2023-05-22T16:22:30.401Z,21.15
2023-05-22T16:25:03.190Z,21.11
2023-05-22T16:27:29.680Z,20.98
2023-05-22T16:29:56.201Z,21.17
2023-05-22T16:32:22.977Z,21.29
2023-05-22T16:34:49.520Z,21.32
2023-05-22T16:37:15.993Z,21.13
2023-05-22T16:39:45.908Z,21.27
2023-05-22T16:42:12.632Z,21.13
2023-05-22T16:44:39.057Z,20.88
2023-05-22T16:47:05.628Z,20.68
2023-05-22T16:49:32.178Z,20.57
2023-05-22T16:51:58.778Z,20.78
2023-05-22T16:54:25.311Z,20.81
2023-05-22T16:56:51.952Z,20.68
2023-05-22T16:59:19.436Z,20.60
2023-05-22T17:01:46.654Z,20.56
2023-05-22T17:04:15.585Z,20.55
2023-05-22T17:06:43.316Z,20.48
2023-05-22T17:09:10.343Z,20.49
2023-05-22T17:11:37.412Z,20.49
2023-05-22T17:14:04.393Z,20.44
2023-05-22T17:16:31.493Z,20.37
2023-05-22T17:18:58.042Z,20.03
2023-05-22T17:21:24.642Z,19.81
2023-05-22T17:23:51.078Z,19.67
2023-05-22T17:26:17.551Z,19.51
2023-05-22T17:28:44.522Z,19.40
2023-05-22T17:31:10.981Z,19.40
2023-05-22T17:33:37.490Z,19.23
2023-05-22T17:36:04.151Z,19.09
2023-05-22T17:38:30.795Z,18.96
2023-05-22T17:40:57.751Z,18.99
2023-05-22T17:43:24.253Z,18.99
2023-05-22T17:45:50.914Z,18.97
2023-05-22T17:48:26.929Z,18.96
2023-05-22T17:50:53.729Z,18.94
2023-05-22T17:53:20.990Z,18.95
2023-05-22T17:55:49.319Z,18.94
2023-05-22T17:58:16.644Z,18.70
2023-05-22T18:00:43.553Z,18.57
2023-05-22T18:03:10.166Z,18.58
2023-05-22T18:05:36.747Z,18.49
2023-05-22T18:08:03.519Z,18.51
2023-05-22T18:10:30.080Z,18.52
2023-05-22T18:12:56.541Z,18.39
2023-05-22T18:15:23.180Z,18.31
2023-05-22T18:17:49.723Z,18.25
2023-05-22T18:20:16.838Z,18.26
2023-05-22T18:22:43.394Z,18.23
2023-05-22T18:25:10.066Z,18.14
2023-05-22T18:27:36.672Z,18.09
2023-05-22T18:30:05.029Z,18.01
2023-05-22T18:32:31.759Z,17.97
2023-05-22T18:35:03.771Z,17.96
2023-05-22T18:37:30.313Z,17.95
2023-05-22T18:39:57.033Z,17.92
2023-05-22T18:42:23.750Z,17.94
2023-05-22T18:44:50.664Z,17.88
2023-05-22T18:47:17.455Z,17.85
2023-05-22T18:49:43.990Z,17.77
2023-05-22T18:52:10.481Z,17.64
2023-05-22T18:54:36.949Z,17.55
2023-05-22T18:57:03.733Z,17.45
2023-05-22T18:59:30.170Z,17.45
2023-05-22T19:01:56.639Z,17.50
2023-05-22T19:04:23.118Z,17.49
2023-05-22T19:06:49.593Z,17.50
2023-05-22T19:09:16.599Z,17.45
2023-05-22T19:11:43.073Z,17.38
2023-05-22T19:14:09.510Z,17.38
2023-05-22T19:16:35.956Z,17.27
2023-05-22T19:19:03.162Z,17.19
2023-05-22T19:21:29.653Z,17.06
2023-05-22T19:23:56.115Z,16.94
2023-05-22T19:26:22.664Z,16.89
2023-05-22T19:28:49.182Z,16.84
2023-05-22T19:31:16.387Z,16.73
2023-05-22T19:33:43.621Z,16.74
2023-05-22T19:36:10.098Z,16.68
2023-05-22T19:38:36.593Z,16.59
2023-05-22T19:41:03.098Z,16.51
2023-05-22T19:43:31.246Z,16.45
2023-05-22T19:45:58.403Z,16.33
2023-05-22T19:48:25.611Z,16.30
2023-05-22T19:50:52.288Z,16.20
2023-05-22T19:53:18.885Z,16.14
2023-05-22T19:55:45.922Z,16.11
2023-05-22T19:58:12.361Z,16.13
2023-05-22T20:00:39.223Z,16.15
2023-05-22T20:03:05.987Z,16.10
2023-05-22T20:05:32.690Z,16.06
2023-05-22T20:07:59.239Z,15.99
2023-05-22T20:10:25.998Z,15.95
2023-05-22T20:12:55.595Z,15.92
2023-05-22T20:15:22.751Z,15.92
2023-05-22T20:17:51.985Z,15.94
2023-05-22T20:20:19.470Z,15.86
2023-05-22T20:22:46.104Z,15.80
2023-05-22T20:25:13.597Z,15.71
2023-05-22T20:27:40.226Z,15.70
2023-05-22T20:30:07.809Z,15.72
2023-05-22T20:32:34.691Z,15.82
2023-05-22T20:35:01.111Z,15.88
2023-05-22T20:37:27.597Z,15.96
2023-05-22T20:39:54.303Z,16.04
2023-05-22T20:42:22.318Z,16.10
2023-05-22T20:44:48.787Z,16.15
2023-05-22T20:47:15.259Z,16.19
2023-05-22T20:49:41.850Z,16.20
2023-05-22T20:52:09.955Z,16.15
2023-05-22T20:54:36.476Z,16.01
2023-05-22T20:57:03.229Z,15.91
2023-05-22T20:59:29.884Z,15.75
2023-05-22T21:01:57.015Z,15.69
2023-05-22T21:04:23.964Z,15.56
2023-05-22T21:06:50.918Z,15.55
2023-05-22T21:09:17.422Z,15.51
2023-05-22T21:11:43.910Z,15.31
2023-05-22T21:14:10.340Z,15.16
2023-05-22T21:16:39.293Z,15.07
2023-05-22T21:19:06.990Z,14.99
2023-05-22T21:21:33.663Z,14.93
2023-05-22T21:24:00.126Z,14.97
2023-05-22T21:26:27.459Z,14.98
2023-05-22T21:28:54.640Z,14.95
2023-05-22T21:31:21.200Z,14.95
2023-05-22T21:33:47.711Z,14.94
2023-05-22T21:36:14.139Z,14.97
2023-05-22T21:38:41.043Z,14.85
2023-05-22T21:41:07.532Z,14.80
2023-05-22T21:43:34.051Z,14.83
2023-05-22T21:46:00.526Z,14.81
2023-05-22T21:48:26.963Z,14.75
2023-05-22T21:50:53.454Z,14.75
2023-05-22T21:53:20.789Z,14.72
2023-05-22T21:55:47.248Z,14.67
2023-05-22T21:58:13.750Z,14.76
2023-05-22T22:00:41.105Z,14.78
2023-05-22T22:03:07.992Z,14.78
2023-05-22T22:05:35.937Z,14.79
2023-05-22T22:08:02.496Z,14.85
2023-05-22T22:10:29.009Z,14.87
2023-05-22T22:12:55.673Z,14.83
2023-05-22T22:15:22.469Z,14.80
2023-05-22T22:17:50.147Z,14.72
2023-05-22T22:20:18.675Z,14.62
2023-05-22T22:22:49.018Z,14.65
2023-05-22T22:25:15.490Z,14.64
2023-05-22T22:27:41.985Z,14.55
2023-05-22T22:30:09.130Z,14.53
2023-05-22T22:32:36.594Z,14.55
2023-05-22T22:35:03.086Z,14.51
2023-05-22T22:37:29.570Z,14.53
2023-05-22T22:39:56.162Z,14.49
2023-05-22T22:42:22.908Z,14.44
2023-05-22T22:44:49.433Z,14.48
2023-05-22T22:47:15.968Z,14.49
2023-05-22T22:49:42.385Z,14.41
2023-05-22T22:52:08.905Z,14.34
2023-05-22T22:54:35.490Z,14.34
2023-05-22T22:57:02.228Z,14.31
2023-05-22T22:59:28.763Z,14.35
2023-05-22T23:01:55.246Z,14.43
2023-05-22T23:04:21.796Z,14.50
2023-05-22T23:06:48.294Z,14.57
2023-05-22T23:09:14.845Z,14.61
2023-05-22T23:11:41.378Z,14.64
2023-05-22T23:14:09.460Z,14.63
2023-05-22T23:16:37.371Z,14.55
2023-05-22T23:19:04.729Z,14.51
2023-05-22T23:21:32.177Z,14.42
2023-05-22T23:23:59.206Z,14.41
2023-05-22T23:26:26.721Z,14.43
2023-05-22T23:28:53.249Z,14.44
2023-05-22T23:31:21.183Z,14.44
2023-05-22T23:33:47.849Z,14.33
2023-05-22T23:36:14.329Z,14.27
2023-05-22T23:38:40.918Z,14.22
2023-05-22T23:41:07.390Z,14.17
2023-05-22T23:43:33.827Z,14.11
2023-05-22T23:46:00.421Z,14.07
2023-05-22T23:48:26.924Z,14.05
2023-05-22T23:50:53.338Z,14.05
2023-05-22T23:53:19.754Z,13.99
2023-05-22T23:55:46.340Z,14.05
2023-05-22T23:58:12.816Z,14.01
